Time;durP1;ratioP1;P1;durP2;ratioP2;P2;SDS_P1;SDS_P2;PMS_P1;PMS_P2;Temp;Humidity;BMP_temperature;BMP_pressure;BME280_temperature;BME280_humidity;BME280_pressure;Samples;Min_cycle;Max_cycle;Signal;HPM_P1;HPM_P2
2023/06/20 00:00:12;;;;;;;8.60;7.72;;;;;;;-144.30;64.52;84686.81;5112147;28;20225;-61
2023/06/20 00:02:39;;;;;;;8.35;7.57;;;;;;;-144.30;64.33;84651.03;5112239;28;20574;-61
2023/06/20 00:05:06;;;;;;;8.43;7.60;;;;;;;-144.30;64.69;84660.97;5112796;28;20201;-61
2023/06/20 00:07:35;;;;;;;11.43;7.63;;;;;;;-144.30;64.81;84601.34;5112736;28;20214;-61
2023/06/20 00:10:02;;;;;;;8.45;7.57;;;;;;;-144.30;64.65;84676.88;5112323;28;20194;-60
2023/06/20 00:12:29;;;;;;;8.48;7.72;;;;;;;-144.30;64.50;84696.75;5112731;28;20239;-62
2023/06/20 00:14:56;;;;;;;8.30;7.70;;;;;;;-144.30;64.57;84720.59;5112435;28;20198;-61
2023/06/20 00:17:25;;;;;;;8.52;6.95;;;;;;;-144.30;64.08;84692.78;5112582;28;20273;-62
2023/06/20 00:19:52;;;;;;;7.80;7.15;;;;;;;-144.30;64.10;84688.81;5112413;28;20194;-61
2023/06/20 00:22:19;;;;;;;7.63;6.72;;;;;;;-144.30;63.75;84696.75;5111973;28;20206;-61
2023/06/20 00:24:47;;;;;;;7.65;6.95;;;;;;;-144.30;63.68;84696.75;5111803;28;20648;-55
2023/06/20 00:27:14;;;;;;;7.32;6.30;;;;;;;-144.30;64.04;84732.53;5111184;28;20229;-56
2023/06/20 00:29:41;;;;;;;7.95;7.22;;;;;;;-144.30;64.60;84754.38;5111404;28;20202;-55
2023/06/20 00:32:08;;;;;;;7.70;7.13;;;;;;;-144.30;64.60;84748.44;5111245;28;20729;-55
2023/06/20 00:34:35;;;;;;;7.43;6.82;;;;;;;-144.30;64.43;84720.59;5111199;28;20234;-55
2023/06/20 00:37:02;;;;;;;8.05;7.35;;;;;;;-144.30;64.53;84740.47;5110927;28;20197;-55
2023/06/20 00:39:29;;;;;;;7.50;6.85;;;;;;;-144.30;64.72;84728.56;5111665;28;20194;-61
2023/06/20 00:41:57;;;;;;;7.65;6.90;;;;;;;-144.30;65.06;84760.34;5111773;28;20203;-61
2023/06/20 00:44:24;;;;;;;7.80;7.20;;;;;;;-144.30;65.23;84758.38;5112152;28;20220;-61
2023/06/20 00:46:51;;;;;;;7.25;6.55;;;;;;;-144.30;65.07;84772.28;5111424;28;20255;-59
2023/06/20 00:49:19;;;;;;;9.93;6.55;;;;;;;-144.30;64.98;84772.28;5111119;28;20190;-55
2023/06/20 00:51:46;;;;;;;9.80;6.68;;;;;;;-144.30;65.02;84744.44;5111312;28;20201;-62
2023/06/20 00:54:13;;;;;;;7.60;7.00;;;;;;;-144.30;64.96;84756.38;5111741;28;20198;-61
2023/06/20 00:56:41;;;;;;;7.88;7.03;;;;;;;-144.30;65.46;84792.16;5111065;28;20191;-56
2023/06/20 00:59:10;;;;;;;7.43;6.85;;;;;;;-144.30;65.61;84764.31;5111759;27;20727;-62
2023/06/20 01:01:37;;;;;;;6.70;6.22;;;;;;;-144.30;65.39;84812.03;5111438;28;20225;-61
2023/06/20 01:04:05;;;;;;;8.02;7.28;;;;;;;-144.30;65.69;84784.19;5111212;28;20198;-61
2023/06/20 01:06:41;;;;;;;7.75;7.25;;;;;;;-144.30;66.95;84772.28;5111240;28;20214;-61
2023/06/20 01:09:15;;;;;;;7.38;6.88;;;;;;;-144.30;67.43;84788.19;5111948;27;20678;-62
2023/06/20 01:11:51;;;;;;;8.90;8.10;;;;;;;-144.30;68.28;84835.88;5110969;28;20203;-61
2023/06/20 01:14:25;;;;;;;8.43;7.72;;;;;;;-144.30;68.97;84629.19;5111371;28;20179;-61
2023/06/20 01:16:58;;;;;;;7.90;7.30;;;;;;;-144.30;68.42;84816.00;5111260;28;20201;-61
2023/06/20 01:19:47;;;;;;;8.15;7.45;;;;;;;-144.30;68.18;84800.09;5111390;28;20205;-62
2023/06/20 01:22:20;;;;;;;9.43;7.50;;;;;;;-144.30;67.84;84812.03;5111377;28;20221;-61
2023/06/20 01:24:58;;;;;;;8.23;7.53;;;;;;;-144.30;68.30;84835.88;5111344;28;20709;-61
2023/06/20 01:27:33;;;;;;;8.05;7.40;;;;;;;-144.30;68.70;84859.72;5111633;28;20202;-56
2023/06/20 01:30:04;;;;;;;8.90;8.00;;;;;;;-144.30;68.84;84843.84;5111123;28;20288;-61
2023/06/20 01:32:38;;;;;;;7.43;6.85;;;;;;;-144.30;68.91;84879.59;5111357;28;20290;-62
2023/06/20 01:35:10;;;;;;;7.57;6.97;;;;;;;-144.30;69.55;84879.59;5110826;28;20226;-61
2023/06/20 01:37:41;;;;;;;7.90;7.18;;;;;;;-144.30;69.48;84879.59;5111289;28;20657;-61
2023/06/20 01:40:11;;;;;;;7.22;6.63;;;;;;;-144.30;69.13;84889.53;5111286;28;20730;-60
2023/06/20 01:42:40;;;;;;;8.10;7.30;;;;;;;-144.30;69.10;84921.34;5110444;28;20597;-56
2023/06/20 01:45:11;;;;;;;7.53;6.93;;;;;;;-144.30;69.13;84831.91;5109916;28;20580;-55
2023/06/20 01:47:41;;;;;;;7.15;6.55;;;;;;;-144.30;69.49;84879.59;5110052;28;20598;-60
2023/06/20 01:50:09;;;;;;;11.63;7.07;;;;;;;-144.30;70.01;84919.34;5110395;28;20195;-61
2023/06/20 01:52:37;;;;;;;8.68;7.45;;;;;;;-144.30;70.62;84939.25;5110894;28;20282;-62
2023/06/20 01:55:06;;;;;;;8.02;7.32;;;;;;;-144.30;71.13;84935.25;5110568;28;20749;-60
2023/06/20 01:57:35;;;;;;;8.00;7.30;;;;;;;-144.30;71.55;84859.72;5110798;28;20191;-61
2023/06/20 02:00:04;;;;;;;8.88;7.47;;;;;;;-144.30;71.83;84905.44;5110354;28;20222;-62
2023/06/20 02:02:31;;;;;;;7.63;6.93;;;;;;;-144.30;72.32;84959.13;5110679;28;20684;-61
2023/06/20 02:04:59;;;;;;;7.78;7.07;;;;;;;-144.30;72.63;84891.53;5110883;28;20696;-61
2023/06/20 02:07:27;;;;;;;7.63;7.03;;;;;;;-144.30;72.83;84907.44;5109863;28;20214;-61
2023/06/20 02:09:56;;;;;;;7.63;7.05;;;;;;;-144.30;72.93;84931.28;5110448;28;20286;-61
2023/06/20 02:12:22;;;;;;;7.68;6.88;;;;;;;-144.30;72.64;84907.44;5110925;28;20222;-61
2023/06/20 02:14:52;;;;;;;8.43;7.35;;;;;;;-144.30;72.42;85346.72;5110686;28;20662;-62
2023/06/20 02:17:20;;;;;;;7.80;7.10;;;;;;;-144.30;71.77;84921.34;5110391;28;20190;-61
2023/06/20 02:19:50;;;;;;;7.75;7.15;;;;;;;-144.30;71.46;84903.47;5110932;28;20178;-61
2023/06/20 02:22:21;;;;;;;9.77;7.90;;;;;;;-144.30;71.06;84907.44;5110291;28;20198;-61
2023/06/20 02:24:50;;;;;;;8.20;7.50;;;;;;;-144.30;70.72;84903.47;5112426;28;20199;-61
2023/06/20 02:27:21;;;;;;;8.90;8.20;;;;;;;-144.30;70.90;84903.47;5114542;28;20222;-62
2023/06/20 02:29:50;;;;;;;7.88;7.38;;;;;;;-144.30;70.89;84943.22;5113842;28;20233;-56
2023/06/20 02:32:21;;;;;;;8.93;7.18;;;;;;;-144.30;70.75;84915.38;5113724;28;20209;-56
2023/06/20 02:34:49;;;;;;;8.18;7.35;;;;;;;-144.30;70.54;84909.41;5114029;28;20284;-61
2023/06/20 02:37:16;;;;;;;7.35;6.85;;;;;;;-144.30;70.19;84933.28;5114315;28;20285;-61
2023/06/20 02:39:43;;;;;;;7.72;7.05;;;;;;;-144.30;70.56;84929.28;5114194;28;20238;-60
2023/06/20 02:42:11;;;;;;;8.77;7.25;;;;;;;-144.30;70.77;84919.34;5114166;28;20200;-60
2023/06/20 02:44:38;;;;;;;8.27;7.55;;;;;;;-144.30;70.86;84949.19;5114570;28;20207;-61
2023/06/20 02:47:15;;;;;;;8.50;7.82;;;;;;;-144.30;71.07;84953.16;5114190;28;20214;-61
2023/06/20 02:49:56;;;;;;;8.10;7.25;;;;;;;-144.30;70.84;84929.28;5093771;28;20198;-61
2023/06/20 02:52:34;;;;;;;7.75;7.15;;;;;;;-144.30;70.74;84909.41;5093608;28;20202;-55
2023/06/20 02:55:09;;;;;;;8.98;8.07;;;;;;;-144.30;70.79;84953.16;5093318;28;20198;-55
2023/06/20 02:57:39;;;;;;;9.20;8.32;;;;;;;-144.30;70.72;84915.38;5092769;28;20201;-55
2023/06/20 03:00:09;;;;;;;8.90;8.10;;;;;;;-144.30;70.65;84935.25;5092960;28;20292;-56
2023/06/20 03:02:40;;;;;;;8.18;7.57;;;;;;;-144.30;70.88;84941.22;5092518;28;20233;-56
2023/06/20 03:05:13;;;;;;;8.40;7.68;;;;;;;-144.30;71.25;84903.47;5092675;28;20203;-55
2023/06/20 03:07:41;;;;;;;8.80;7.93;;;;;;;-144.30;71.52;84889.53;5092756;28;20703;-57
2023/06/20 03:10:09;;;;;;;8.10;7.50;;;;;;;-144.30;71.67;84897.50;5092453;28;20199;-56
2023/06/20 03:12:37;;;;;;;13.73;7.78;;;;;;;-144.30;71.45;84899.47;5097927;28;20257;-56
2023/06/20 03:15:04;;;;;;;9.35;8.45;;;;;;;-144.30;71.62;84903.47;5113049;28;20191;-63
2023/06/20 03:17:35;;;;;;;9.80;8.30;;;;;;;-144.30;71.65;84925.31;5111712;28;20624;-62
2023/06/20 03:20:03;;;;;;;10.30;8.07;;;;;;;-144.30;71.09;84881.59;5112409;28;20542;-56
2023/06/20 03:22:32;;;;;;;9.15;8.18;;;;;;;-144.30;70.61;84903.47;5092241;28;20238;-59
2023/06/20 03:24:59;;;;;;;12.30;8.85;;;;;;;-144.30;70.62;84883.59;5092381;28;20226;-62
2023/06/20 03:27:26;;;;;;;9.30;8.60;;;;;;;-144.30;70.02;84855.75;5092051;28;20227;-57
2023/06/20 03:29:53;;;;;;;9.57;8.10;;;;;;;-144.30;69.29;84853.78;5092461;28;20731;-56
2023/06/20 03:32:20;;;;;;;9.73;8.80;;;;;;;-144.30;69.17;84847.81;5092569;28;20206;-62
2023/06/20 03:34:47;;;;;;;9.73;8.15;;;;;;;-144.30;68.61;84810.03;5092352;28;20246;-63
2023/06/20 03:37:13;;;;;;;10.70;9.48;;;;;;;-144.30;68.11;84790.16;5092429;28;20203;-62
2023/06/20 03:39:42;;;;;;;11.60;8.75;;;;;;;-144.30;67.56;84816.00;5092473;28;20195;-63
2023/06/20 03:42:09;;;;;;;10.98;8.38;;;;;;;-144.30;66.71;84768.31;5091935;28;20300;-62
2023/06/20 03:44:36;;;;;;;11.93;9.05;;;;;;;-144.30;65.81;84768.31;5092205;28;20605;-60
2023/06/20 03:47:03;;;;;;;10.45;9.45;;;;;;;-144.30;64.71;84726.56;5092037;28;20242;-57
2023/06/20 03:49:30;;;;;;;20.10;12.43;;;;;;;-144.30;64.72;84720.59;5091696;28;20199;-60
2023/06/20 03:51:57;;;;;;;10.55;9.50;;;;;;;-144.30;64.03;84722.59;5091201;28;20203;-63
2023/06/20 03:54:24;;;;;;;11.48;9.77;;;;;;;-144.30;61.71;84565.56;5108463;28;20281;-64
2023/06/20 03:56:52;;;;;;;10.15;8.82;;;;;;;-144.30;55.52;84350.94;5110567;28;20281;-64
2023/06/20 03:59:19;;;;;;;12.20;9.85;;;;;;;-144.30;50.74;84074.72;5110024;28;20186;-64
2023/06/20 04:01:46;;;;;;;13.70;9.05;;;;;;;-144.30;46.48;83846.19;5110060;28;20205;-64
2023/06/20 04:04:16;;;;;;;9.68;8.77;;;;;;;-144.30;43.80;83703.13;5111542;28;20678;-55
2023/06/20 04:06:42;;;;;;;10.38;8.27;;;;;;;-144.30;41.42;83532.25;5111707;28;20190;-55
2023/06/20 04:09:09;;;;;;;10.18;8.05;;;;;;;-144.30;39.67;83365.34;5104803;28;20301;-56
2023/06/20 04:11:36;;;;;;;13.30;8.25;;;;;;;-144.30;37.84;83184.56;5110316;28;20670;-56
2023/06/20 04:14:04;;;;;;;9.13;8.32;;;;;;;-144.30;36.99;83029.59;5110400;28;20205;-56
2023/06/20 04:16:31;;;;;;;9.63;8.85;;;;;;;-144.30;36.11;82868.69;5111060;28;20199;-56
2023/06/20 04:18:59;;;;;;;12.82;8.73;;;;;;;-144.30;34.83;82707.81;5110953;28;20201;-56
2023/06/20 04:21:25;;;;;;;11.68;8.40;;;;;;;-144.30;33.81;82542.94;5110002;28;20209;-57
2023/06/20 04:23:52;;;;;;;14.35;9.75;;;;;;;-144.30;33.19;82395.94;5111155;27;20186;-57
2023/06/20 04:26:19;;;;;;;9.85;8.32;;;;;;;-144.30;32.24;82231.09;5111339;28;20198;-56
2023/06/20 04:28:46;;;;;;;10.35;8.88;;;;;;;-144.30;31.67;82135.75;5111192;28;20744;-56
2023/06/20 04:31:14;;;;;;;12.25;8.27;;;;;;;-144.30;31.31;82054.34;5111308;28;20198;-57
2023/06/20 04:33:43;;;;;;;9.95;8.18;;;;;;;-144.30;30.81;81901.41;5111416;28;20602;-56
2023/06/20 04:36:12;;;;;;;15.35;8.63;;;;;;;-144.30;30.23;81812.06;5111130;27;20265;-56
2023/06/20 04:38:40;;;;;;;9.93;8.45;;;;;;;-144.30;29.94;81714.75;5111180;28;20553;-63
2023/06/20 04:41:07;;;;;;;10.55;8.75;;;;;;;-144.30;29.95;81706.81;5111589;28;20666;-63
2023/06/20 04:43:34;;;;;;;9.30;8.45;;;;;;;-144.30;29.77;81716.72;5111075;28;20190;-64
2023/06/20 04:46:01;;;;;;;15.25;9.10;;;;;;;-144.30;29.43;81530.06;5111053;28;20748;-63
2023/06/20 04:48:29;;;;;;;13.30;8.52;;;;;;;-144.30;28.86;81339.44;5110210;28;20640;-64
2023/06/20 04:50:56;;;;;;;10.45;8.60;;;;;;;-144.30;29.09;81454.63;5110725;28;20198;-64
2023/06/20 04:53:25;;;;;;;9.88;8.90;;;;;;;-144.30;29.05;81379.16;5110987;28;20206;-56
2023/06/20 04:55:52;;;;;;;9.45;8.27;;;;;;;-144.30;29.19;81422.84;5111243;28;20276;-55
2023/06/20 04:58:19;;;;;;;8.85;7.63;;;;;;;-144.30;29.07;81464.53;5110650;28;20197;-65
2023/06/20 05:00:48;;;;;;;8.73;8.20;;;;;;;-144.30;29.44;81456.59;5110675;28;20198;-65
2023/06/20 05:03:15;;;;;;;11.30;8.27;;;;;;;-144.30;30.31;81736.59;5110414;28;20194;-65
2023/06/20 05:05:43;;;;;;;9.63;8.20;;;;;;;-144.30;30.74;81820.00;5110604;28;20200;-65
2023/06/20 05:08:10;;;;;;;12.05;8.88;;;;;;;-144.30;30.79;81818.00;5110556;28;20217;-65
2023/06/20 05:10:37;;;;;;;8.55;7.80;;;;;;;-144.30;30.36;81744.53;5110678;28;20279;-65
2023/06/20 05:13:04;;;;;;;8.80;8.05;;;;;;;-144.30;29.73;81530.06;5110231;28;20198;-64
2023/06/20 05:15:31;;;;;;;13.73;7.72;;;;;;;-144.30;29.15;81273.91;5110575;28;20226;-64
2023/06/20 05:17:58;;;;;;;11.82;7.95;;;;;;;-144.30;28.53;81063.47;5110439;28;20190;-64
2023/06/20 05:20:25;;;;;;;9.02;7.45;;;;;;;-144.30;27.86;80876.84;5110648;28;20225;-63
2023/06/20 05:22:53;;;;;;;13.48;9.25;;;;;;;-144.30;28.03;80851.03;5110648;28;20282;-64
2023/06/20 05:25:20;;;;;;;16.77;8.85;;;;;;;-144.30;27.68;80755.72;5110162;28;20595;-63
2023/06/20 05:27:47;;;;;;;15.88;8.85;;;;;;;-144.30;27.39;80531.41;5110276;28;20657;-63
2023/06/20 05:30:14;;;;;;;17.73;8.45;;;;;;;-144.30;27.23;80616.75;5110482;28;20297;-57
2023/06/20 05:32:41;;;;;;;25.55;9.18;;;;;;;-144.30;26.94;80414.28;5110488;28;20205;-62
2023/06/20 05:35:09;;;;;;;11.82;7.63;;;;;;;-144.30;27.17;80614.78;5110333;28;20666;-64
2023/06/20 05:37:36;;;;;;;11.30;8.80;;;;;;;-144.30;27.49;80741.84;5110879;28;20745;-59
2023/06/20 05:40:05;;;;;;;10.50;8.00;;;;;;;-144.30;27.25;80735.88;5110410;28;20200;-58
2023/06/20 05:42:32;;;;;;;12.27;7.90;;;;;;;-144.30;27.26;80622.72;5110412;28;20233;-58
2023/06/20 05:44:59;;;;;;;12.95;8.20;;;;;;;-144.30;27.09;80436.13;5110451;28;20588;-58
2023/06/20 05:47:26;;;;;;;9.50;8.68;;;;;;;-144.30;27.06;80547.28;5110589;28;20190;-57
2023/06/20 05:49:57;;;;;;;18.55;7.93;;;;;;;-144.30;27.07;80588.97;5107345;28;20616;-64
2023/06/20 05:52:24;;;;;;;10.25;8.90;;;;;;;-144.30;26.65;80714.03;5109798;28;20205;-64
2023/06/20 05:54:53;;;;;;;7.78;7.20;;;;;;;-144.30;26.58;80708.09;5110251;28;20288;-56
2023/06/20 05:57:22;;;;;;;8.98;7.28;;;;;;;-144.30;26.67;80894.69;5110135;28;20206;-63
2023/06/20 05:59:50;;;;;;;12.45;6.82;;;;;;;-144.30;27.42;81196.50;5109718;28;20217;-64
2023/06/20 06:02:16;;;;;;;7.57;6.97;;;;;;;-144.30;27.14;81170.69;5109800;28;20194;-63
2023/06/20 06:04:44;;;;;;;6.80;6.30;;;;;;;-144.30;27.21;81196.50;5109782;28;20204;-57
2023/06/20 06:07:11;;;;;;;8.15;6.97;;;;;;;-144.30;27.04;81128.97;5109418;28;20202;-57
2023/06/20 06:09:38;;;;;;;7.05;6.50;;;;;;;-144.30;26.90;80898.66;5108431;28;20424;-59
2023/06/20 06:12:06;;;;;;;9.98;7.00;;;;;;;-144.30;26.77;80791.47;5109660;28;20198;-59
2023/06/20 06:14:34;;;;;;;6.95;6.35;;;;;;;-144.30;26.75;80795.44;5110135;28;20198;-59
2023/06/20 06:17:01;;;;;;;8.82;6.68;;;;;;;-144.30;27.26;81232.22;5110099;28;20194;-59
2023/06/20 06:19:28;;;;;;;8.38;6.65;;;;;;;-144.30;27.52;81295.75;5110232;28;20281;-62
2023/06/20 06:21:55;;;;;;;8.55;6.90;;;;;;;-144.30;27.45;81361.28;5106223;28;20704;-62
2023/06/20 06:24:22;;;;;;;14.48;6.85;;;;;;;-144.30;27.72;81395.03;5109686;28;20198;-62
2023/06/20 06:26:49;;;;;;;9.05;6.85;;;;;;;-144.30;28.13;81541.97;5109336;28;20190;-59
2023/06/20 06:29:17;;;;;;;9.70;7.47;;;;;;;-144.30;28.17;81482.41;5108520;28;20228;-58
2023/06/20 06:31:46;;;;;;;9.85;8.93;;;;;;;-144.30;28.18;81520.13;5109035;28;20691;-58
2023/06/20 06:34:17;;;;;;;9.98;7.78;;;;;;;-144.30;27.68;81428.81;5109786;28;20233;-59
2023/06/20 06:36:48;;;;;;;7.53;6.95;;;;;;;-144.30;28.03;81526.09;5110022;28;20198;-59
2023/06/20 06:39:17;;;;;;;7.45;6.82;;;;;;;-144.30;28.03;81516.16;5109743;28;20674;-62
2023/06/20 06:41:45;;;;;;;7.65;7.05;;;;;;;-144.30;28.05;81508.22;5086699;28;20194;-59
2023/06/20 06:44:12;;;;;;;7.13;6.60;;;;;;;-144.30;27.89;81534.03;5089266;28;20671;-59
2023/06/20 06:46:39;;;;;;;9.77;6.57;;;;;;;-144.30;27.82;81613.47;5089384;28;20195;-58
2023/06/20 06:49:08;;;;;;;10.15;6.25;;;;;;;-144.30;28.06;81609.50;5088933;28;20215;-60
2023/06/20 06:51:35;;;;;;;8.35;6.70;;;;;;;-144.30;28.18;81736.59;5085911;28;20207;-59
2023/06/20 06:54:02;;;;;;;7.13;6.18;;;;;;;-144.30;28.10;81772.34;5088845;28;20636;-61
2023/06/20 06:56:29;;;;;;;7.10;6.43;;;;;;;-144.30;28.10;81708.78;5089423;28;20291;-63
2023/06/20 06:59:00;;;;;;;6.57;6.00;;;;;;;-144.30;28.34;81730.63;5089516;28;20270;-59
2023/06/20 07:01:28;;;;;;;7.97;7.30;;;;;;;-144.30;28.22;81754.47;5089507;28;20244;-58
2023/06/20 07:03:55;;;;;;;9.48;6.80;;;;;;;-144.30;28.32;81692.91;5089327;28;20199;-59
2023/06/20 07:06:23;;;;;;;7.03;6.53;;;;;;;-144.30;28.48;81788.22;5089264;28;20191;-63
2023/06/20 07:08:52;;;;;;;14.05;10.65;;;;;;;-144.30;28.87;81845.81;5089204;28;20219;-59
2023/06/20 07:11:19;;;;;;;9.18;7.82;;;;;;;-144.30;28.83;81851.78;5091956;28;20589;-60
2023/06/20 07:13:46;;;;;;;9.35;8.48;;;;;;;-144.30;28.85;81847.78;5092950;28;20223;-58
2023/06/20 07:16:13;;;;;;;7.30;6.72;;;;;;;-144.30;28.74;81951.06;5092824;28;20206;-61
2023/06/20 07:18:40;;;;;;;8.25;7.55;;;;;;;-144.30;29.05;81907.38;5092956;28;20198;-64
2023/06/20 07:21:06;;;;;;;9.98;7.60;;;;;;;-144.30;29.31;81978.88;5092609;28;20201;-61
2023/06/20 07:23:35;;;;;;;9.68;8.80;;;;;;;-144.30;29.04;81849.78;5092980;28;20205;-58
2023/06/20 07:26:02;;;;;;;8.50;7.68;;;;;;;-144.30;28.61;81700.84;5092737;28;20201;-62
2023/06/20 07:28:29;;;;;;;7.93;7.38;;;;;;;-144.30;28.08;81581.69;5092649;28;20322;-61
2023/06/20 07:30:56;;;;;;;8.90;6.90;;;;;;;-144.30;27.57;81530.06;5092728;28;20199;-62
2023/06/20 07:33:23;;;;;;;7.85;7.22;;;;;;;-144.30;27.61;81551.91;5102743;28;20230;-62
2023/06/20 07:35:49;;;;;;;9.15;6.60;;;;;;;-144.30;27.33;81444.69;5112665;28;20201;-61
2023/06/20 07:38:16;;;;;;;13.05;7.28;;;;;;;-144.30;27.40;81434.75;5113070;28;20583;-62
2023/06/20 07:40:45;;;;;;;7.50;6.90;;;;;;;-144.30;27.59;81434.75;5112720;28;20194;-63
2023/06/20 07:43:12;;;;;;;7.13;6.72;;;;;;;-144.30;27.59;81399.00;5112628;28;20194;-57
2023/06/20 07:45:38;;;;;;;6.93;6.43;;;;;;;-144.30;27.35;81337.47;5113119;28;20683;-60
2023/06/20 07:48:06;;;;;;;7.80;7.00;;;;;;;-144.30;27.21;81264.00;5108635;28;20202;-59
2023/06/20 07:50:33;;;;;;;12.10;6.85;;;;;;;-144.30;27.75;81325.56;5112025;28;20712;-59
2023/06/20 07:53:00;;;;;;;10.32;6.72;;;;;;;-144.30;27.60;81244.13;5112475;28;20198;-62
2023/06/20 07:55:27;;;;;;;8.20;7.18;;;;;;;-144.30;27.87;81232.22;5112917;28;20269;-59
2023/06/20 07:57:56;;;;;;;8.50;7.35;;;;;;;-144.30;28.00;81309.66;5112774;28;20597;-59
2023/06/20 08:00:24;;;;;;;9.85;7.68;;;;;;;-144.30;27.79;81329.53;5112021;28;20775;-61
2023/06/20 08:02:52;;;;;;;7.28;6.72;;;;;;;-144.30;27.55;81174.66;5111487;27;20284;-62
2023/06/20 08:05:19;;;;;;;6.65;6.18;;;;;;;-144.30;27.17;81234.22;5112156;28;20677;-62
2023/06/20 08:07:46;;;;;;;7.82;7.15;;;;;;;-144.30;27.63;81311.66;5112524;28;20586;-62
2023/06/20 08:10:13;;;;;;;9.98;6.68;;;;;;;-144.30;28.07;81534.03;5112205;28;20599;-63
2023/06/20 08:12:40;;;;;;;7.63;6.97;;;;;;;-144.30;27.91;81637.31;5111654;28;20288;-63
2023/06/20 08:15:09;;;;;;;16.13;9.38;;;;;;;-144.30;28.12;81754.47;5111313;28;20225;-63
2023/06/20 08:17:36;;;;;;;8.18;7.00;;;;;;;-144.30;28.66;81921.28;5102669;28;20209;-58
2023/06/20 08:20:06;;;;;;;8.18;7.40;;;;;;;-144.30;29.60;81984.81;5091293;28;20325;-61
2023/06/20 08:22:33;;;;;;;7.60;7.03;;;;;;;-144.30;29.26;82070.22;5089578;28;20679;-61
2023/06/20 08:25:00;;;;;;;7.90;7.38;;;;;;;-144.30;29.60;82195.34;5095130;28;21146;-62
2023/06/20 08:27:27;;;;;;;8.02;7.35;;;;;;;-144.30;30.09;82256.91;5107599;28;20876;-58
2023/06/20 08:29:54;;;;;;;7.45;6.90;;;;;;;-144.30;30.74;82284.72;5110282;28;20254;-58
2023/06/20 08:32:23;;;;;;;6.63;6.22;;;;;;;-144.30;29.82;82165.56;5111259;28;20199;-61
2023/06/20 08:34:49;;;;;;;8.18;6.05;;;;;;;-144.30;29.24;81903.41;5111076;28;20234;-61
2023/06/20 08:37:18;;;;;;;7.07;6.57;;;;;;;-144.30;28.41;81692.91;5111163;28;20203;-58
2023/06/20 08:39:45;;;;;;;6.50;6.10;;;;;;;-144.30;28.08;81645.25;5111246;28;20193;-59
2023/06/20 08:42:12;;;;;;;8.05;6.30;;;;;;;-144.30;27.74;81750.50;5111165;28;20567;-60
2023/06/20 08:44:39;;;;;;;6.80;6.20;;;;;;;-144.30;28.00;81607.50;5110087;28;20700;-61
2023/06/20 08:47:07;;;;;;;7.20;6.60;;;;;;;-144.30;28.10;81722.69;5111262;28;20639;-59
2023/06/20 08:49:36;;;;;;;6.38;5.97;;;;;;;-144.30;28.26;81780.28;5110921;28;20219;-58
2023/06/20 08:52:12;;;;;;;8.10;6.78;;;;;;;-144.30;28.47;81915.31;5096253;28;20210;-62
2023/06/20 08:54:42;;;;;;;7.55;6.68;;;;;;;-144.30;28.63;81835.88;5091007;28;20195;-62
2023/06/20 08:57:09;;;;;;;8.88;6.47;;;;;;;-144.30;29.21;81955.03;5090423;28;20195;-61
2023/06/20 08:59:36;;;;;;;12.57;6.90;;;;;;;-144.30;29.24;81937.16;5090451;28;20187;-61
2023/06/20 09:02:03;;;;;;;7.13;6.45;;;;;;;-144.30;29.44;81962.97;5090467;28;20207;-62
2023/06/20 09:04:30;;;;;;;7.22;6.80;;;;;;;-144.30;29.36;81931.22;5090511;28;20633;-58
2023/06/20 09:07:01;;;;;;;10.73;5.95;;;;;;;-144.30;28.79;81881.56;5090159;28;20196;-62
2023/06/20 09:09:28;;;;;;;6.53;6.05;;;;;;;-144.30;28.50;81827.94;5090136;28;20331;-62
2023/06/20 09:11:58;;;;;;;7.25;5.72;;;;;;;-144.30;27.78;81875.59;5090212;28;20200;-62
2023/06/20 09:14:27;;;;;;;6.68;5.07;;;;;;;-144.30;27.78;81820.00;5090300;28;20191;-61
2023/06/20 09:16:54;;;;;;;5.60;5.30;;;;;;;-144.30;27.68;81899.44;5090231;28;20195;-61
2023/06/20 09:19:21;;;;;;;11.68;5.85;;;;;;;-144.30;27.52;81919.28;5090123;28;20663;-62
2023/06/20 09:21:48;;;;;;;7.40;5.90;;;;;;;-144.30;27.77;81978.88;5090041;28;20203;-62
2023/06/20 09:24:19;;;;;;;6.55;5.95;;;;;;;-144.30;27.64;81923.25;5089691;28;20199;-60
2023/06/20 09:26:47;;;;;;;6.00;5.50;;;;;;;-144.30;27.52;81887.53;5089907;28;20211;-62
2023/06/20 09:29:16;;;;;;;7.07;6.63;;;;;;;-144.30;27.30;81861.69;5090170;28;20643;-62
2023/06/20 09:31:44;;;;;;;5.88;5.47;;;;;;;-144.30;27.07;81851.78;5090153;28;20472;-58
2023/06/20 09:34:16;;;;;;;5.95;5.40;;;;;;;-144.30;26.41;81879.56;5089530;28;20334;-58
2023/06/20 09:36:43;;;;;;;4.57;4.38;;;;;;;-144.30;27.28;81863.69;5089822;28;20192;-62
2023/06/20 09:39:12;;;;;;;5.82;5.30;;;;;;;-144.30;27.13;81772.34;5089825;28;20581;-62
2023/06/20 09:41:46;;;;;;;5.57;5.28;;;;;;;-144.30;27.06;81780.28;5090057;28;20718;-62
2023/06/20 09:44:14;;;;;;;7.10;5.07;;;;;;;-144.30;26.92;81780.28;5091078;28;20203;-62
2023/06/20 09:46:41;;;;;;;10.13;5.20;;;;;;;-144.30;27.06;81780.28;5109738;28;20195;-62
2023/06/20 09:49:08;;;;;;;5.22;4.93;;;;;;;-144.30;27.14;81770.34;5109432;28;20209;-59
2023/06/20 09:51:42;;;;;;;6.50;5.55;;;;;;;-144.30;27.12;81827.94;5106140;28;20205;-62
2023/06/20 09:54:12;;;;;;;4.97;4.65;;;;;;;-144.30;27.23;81821.97;5109823;28;20194;-59
2023/06/20 09:56:46;;;;;;;5.40;5.00;;;;;;;-144.30;27.59;81847.78;5109503;28;20274;-62
2023/06/20 09:59:15;;;;;;;6.78;5.85;;;;;;;-144.30;27.74;81935.19;5109678;28;20217;-58
2023/06/20 10:01:43;;;;;;;5.88;5.38;;;;;;;-144.30;28.44;81961.00;5109100;28;20203;-62
2023/06/20 10:04:11;;;;;;;5.80;5.40;;;;;;;-144.30;28.73;81974.91;5108048;28;20229;-59
2023/06/20 10:06:39;;;;;;;6.13;5.72;;;;;;;-144.30;28.83;82020.56;5109311;28;20202;-58
2023/06/20 10:09:07;;;;;;;6.43;6.00;;;;;;;-144.30;28.71;82102.00;5109442;28;20286;-58
2023/06/20 10:11:35;;;;;;;6.30;5.70;;;;;;;-144.30;28.61;82068.25;5109834;28;20205;-58
2023/06/20 10:14:04;;;;;;;6.32;5.78;;;;;;;-144.30;28.93;82133.78;5109387;28;20199;-58
2023/06/20 10:16:33;;;;;;;8.05;6.35;;;;;;;-144.30;29.17;82229.09;5109917;28;20259;-62
2023/06/20 10:19:16;;;;;;;6.70;6.30;;;;;;;-144.30;28.75;82254.94;5109498;28;20599;-62
2023/06/20 10:21:58;;;;;;;6.15;5.60;;;;;;;-144.30;28.87;82229.09;5109579;28;20208;-62
2023/06/20 10:24:29;;;;;;;5.85;5.35;;;;;;;-144.30;29.31;82141.72;5109512;28;20248;-62
2023/06/20 10:27:00;;;;;;;6.72;6.22;;;;;;;-144.30;28.49;82102.00;5109540;28;20552;-63
2023/06/20 10:29:28;;;;;;;7.25;6.18;;;;;;;-144.30;28.56;82094.06;5109696;28;20274;-57
2023/06/20 10:31:58;;;;;;;6.28;5.78;;;;;;;-144.30;28.03;82084.13;5109367;28;20201;-58
2023/06/20 10:34:35;;;;;;;6.10;5.60;;;;;;;-144.30;28.24;82038.44;5109054;28;20230;-63
2023/06/20 10:37:16;;;;;;;5.65;5.13;;;;;;;-144.30;28.08;82048.38;5109004;28;20701;-64
2023/06/20 10:39:53;;;;;;;5.65;5.35;;;;;;;-144.30;27.97;82034.47;5109279;28;20259;-63
2023/06/20 10:42:37;;;;;;;5.70;5.20;;;;;;;-144.30;27.98;82121.88;5109145;28;20289;-64
2023/06/20 10:45:22;;;;;;;6.28;5.80;;;;;;;-144.30;28.17;82229.09;5109654;27;20239;-57
2023/06/20 10:47:51;;;;;;;5.70;5.25;;;;;;;-144.30;28.68;82393.97;5113663;28;20706;-58
2023/06/20 10:50:19;;;;;;;5.60;5.20;;;;;;;-144.30;28.72;82427.72;5113200;28;20222;-61
2023/06/20 10:52:46;;;;;;;6.00;5.70;;;;;;;-144.30;28.90;82511.16;5113104;28;20201;-61
2023/06/20 10:55:17;;;;;;;8.18;5.05;;;;;;;-144.30;29.02;82578.69;5113003;28;20666;-62
2023/06/20 10:57:45;;;;;;;6.00;5.55;;;;;;;-144.30;29.32;82568.75;5111570;28;20629;-61
2023/06/20 11:00:15;;;;;;;5.43;5.03;;;;;;;-144.30;29.74;82590.59;5107697;28;20230;-61
2023/06/20 11:02:43;;;;;;;5.68;5.28;;;;;;;-144.30;29.64;82622.38;5109639;28;20198;-62
2023/06/20 11:05:11;;;;;;;5.60;5.30;;;;;;;-144.30;30.07;82626.34;5112634;28;20194;-61
2023/06/20 11:07:57;;;;;;;5.70;5.35;;;;;;;-144.30;29.02;82626.34;5112574;28;20294;-62
2023/06/20 11:10:29;;;;;;;5.57;5.18;;;;;;;-144.30;29.12;82461.50;5108840;28;20267;-61
2023/06/20 11:12:57;;;;;;;5.47;4.97;;;;;;;-144.30;28.77;82503.22;5112577;28;20191;-62
2023/06/20 11:15:26;;;;;;;5.40;5.00;;;;;;;-144.30;28.63;82505.19;5109664;28;20193;-62
2023/06/20 11:17:54;;;;;;;5.22;4.93;;;;;;;-144.30;28.84;82501.22;5112418;28;20249;-59
2023/06/20 11:20:24;;;;;;;10.25;4.95;;;;;;;-144.30;29.07;82481.34;5112480;28;20684;-58